Angistri — SZMQ — position and weather

sailwx.info

Track history (hours):
 
Tides and Currents Weather Stations Pressure Air Temp Water Temp Dewpoint Dewpoint Depression Visibility Wind Speed Wind Dir Waves Ship Positions

Angistri

Last reported at 2018-May-08 13:56 UTC. Time now 2018-May-20 11:57 UTC.
Position N 29°39' W 089°57'.
Warning: this ship's position is 11 days out of date.

Length 214 m; draft 8 m.

Type: Tanker. MMSI: 239668000.

Date/timePositionNaut miles runAvg speedWind from/ knotsBaromVisibWave heightAir tempDewpointWater temp
2018-May-08 13:56N 29°39' W 089°57'5 9.9
2018-May-08 13:29N 29°36' W 089°52'31 9.4
2018-May-08 10:11N 29°19' W 089°23'410.6
2018-May-08 09:46N 29°16' W 089°20'311.1
2018-May-08 09:30N 29°13' W 089°17'23 9.7
2018-May-08 07:08N 28°51' W 089°25'212.5
2018-May-08 06:59N 28°50' W 089°25'5 0.3
2018-May-07 16:08N 28°50' W 089°20'0 0.1
2018-May-07 15:56N 28°50' W 089°20'0 0.1
2018-May-07 15:26N 28°50' W 089°20'0 0.1
2018-May-07 14:56N 28°50' W 089°20'0 0.0
2018-May-07 09:50N 28°50' W 089°20'  
Track history (hours):
 
Tides and Currents Weather Stations Pressure Air Temp Water Temp Dewpoint Dewpoint Depression Visibility Wind Speed Wind Dir Waves Ship Positions

Angistri

Last reported at 2018-May-08 13:56 UTC. Time now 2018-May-20 11:57 UTC.
Position N 29°39' W 089°57'.
Warning: this ship's position is 11 days out of date.

Length 214 m; draft 8 m.

Type: Tanker. MMSI: 239668000.

Date/timePositionNaut miles runAvg speedWind from/ knotsBaromVisibWave heightAir tempDewpointWater temp
2018-May-08 13:56N 29°39' W 089°57'5 9.9
2018-May-08 13:29N 29°36' W 089°52'31 9.4
2018-May-08 10:11N 29°19' W 089°23'410.6
2018-May-08 09:46N 29°16' W 089°20'311.1
2018-May-08 09:30N 29°13' W 089°17'23 9.7
2018-May-08 07:08N 28°51' W 089°25'212.5
2018-May-08 06:59N 28°50' W 089°25'5 0.3
2018-May-07 16:08N 28°50' W 089°20'0 0.1
2018-May-07 15:56N 28°50' W 089°20'0 0.1
2018-May-07 15:26N 28°50' W 089°20'0 0.1
2018-May-07 14:56N 28°50' W 089°20'0 0.0
2018-May-07 09:50N 28°50' W 089°20'  

Dump ship's entire track history